8.900 kWh

EHAM AMSTERDAM/SCHIPHOL NLD -3 m.
METAR EHAM 201355Z 28011KT 250V310 CAVOK 22/10 Q1022 NOSIG

EHAM AMSTERDAM/SCHIPHOL NLD -3 m.
TAF EHAM 201051Z 2012/2118 28007KT CAVOK
BECMG 2017/2020 34005KT
BECMG 2022/2101 4000 MIFG BR
PROB40 2101/2105 2500 BCFG
BECMG 2106/2108 07007KT CAVOK